createdAt,value
2022-08-22T00:01:26.386Z,60.68
2022-08-22T00:02:54.564Z,60.09
2022-08-22T00:02:58.751Z,60.14
2022-08-22T00:04:20.267Z,60.72
2022-08-22T00:07:02.402Z,60.55
2022-08-22T00:09:35.723Z,60.68
2022-08-22T00:12:14.406Z,60.67
2022-08-22T00:15:42.160Z,60.51
2022-08-22T00:18:59.745Z,60.66
2022-08-22T00:21:38.489Z,60.63
2022-08-22T00:24:18.981Z,60.71
2022-08-22T00:27:14.149Z,60.63
2022-08-22T00:30:05.712Z,60.73
2022-08-22T00:32:50.875Z,60.71
2022-08-22T00:35:57.580Z,60.58
2022-08-22T00:38:35.334Z,60.82
2022-08-22T00:41:24.588Z,60.65
2022-08-22T00:44:33.517Z,60.56
2022-08-22T00:47:37.710Z,60.62
2022-08-22T00:50:42.496Z,60.71
2022-08-22T00:53:21.220Z,60.77
2022-08-22T00:56:20.068Z,60.71
2022-08-22T00:59:28.574Z,60.80
2022-08-22T01:02:36.573Z,60.73
2022-08-22T01:05:41.395Z,60.63
2022-08-22T01:08:37.259Z,60.82
2022-08-22T01:11:25.644Z,60.91
2022-08-22T01:14:20.678Z,60.71
2022-08-22T01:17:31.414Z,60.74
2022-08-22T01:20:53.962Z,60.92
2022-08-22T01:23:50.887Z,60.83
2022-08-22T01:26:54.423Z,60.89
2022-08-22T01:29:37.974Z,60.77
2022-08-22T01:32:23.677Z,60.95
2022-08-22T01:35:00.537Z,60.79
2022-08-22T01:38:08.504Z,60.62
2022-08-22T01:41:21.940Z,61.02
2022-08-22T01:43:59.637Z,60.84
2022-08-22T01:46:53.115Z,60.88
2022-08-22T01:49:34.757Z,60.80
2022-08-22T01:52:38.685Z,60.79
2022-08-22T01:55:23.921Z,61.01
2022-08-22T01:57:55.828Z,61.13
2022-08-22T02:00:35.043Z,61.01
2022-08-22T02:04:04.668Z,60.86
2022-08-22T02:07:08.668Z,60.94
2022-08-22T02:10:25.216Z,60.77
2022-08-22T02:13:29.973Z,60.95
2022-08-22T02:16:38.175Z,61.09
2022-08-22T02:19:17.639Z,61.02
2022-08-22T02:22:19.225Z,61.09
2022-08-22T02:25:15.225Z,60.82
2022-08-22T02:28:08.567Z,61.14
2022-08-22T02:31:16.698Z,61.06
2022-08-22T02:33:46.611Z,61.11
2022-08-22T02:36:30.288Z,61.10
2022-08-22T02:39:52.760Z,61.00
2022-08-22T02:42:38.129Z,60.97
2022-08-22T02:45:41.685Z,61.20
2022-08-22T02:49:13.585Z,61.13
2022-08-22T02:52:03.527Z,61.23
2022-08-22T02:55:08.951Z,60.98
2022-08-22T02:58:00.822Z,60.86
2022-08-22T03:00:42.289Z,61.04
2022-08-22T03:03:27.273Z,61.08
2022-08-22T03:06:03.027Z,61.12
2022-08-22T03:08:42.953Z,61.18
2022-08-22T03:11:23.799Z,61.25
2022-08-22T03:13:53.683Z,61.05
2022-08-22T03:16:44.675Z,61.07
2022-08-22T03:19:55.777Z,61.16
2022-08-22T03:23:19.570Z,61.27
2022-08-22T03:25:55.422Z,61.31
2022-08-22T03:28:52.712Z,61.11
2022-08-22T03:31:30.058Z,61.36
2022-08-22T03:34:24.721Z,61.25
2022-08-22T03:37:43.342Z,61.29
2022-08-22T03:40:42.553Z,61.08
2022-08-22T03:43:18.176Z,61.21
2022-08-22T03:46:36.343Z,61.31
2022-08-22T03:49:59.325Z,61.34
2022-08-22T03:53:19.184Z,61.28
2022-08-22T03:56:10.613Z,61.42
2022-08-22T03:59:12.572Z,61.40
2022-08-22T04:01:57.605Z,61.19
2022-08-22T04:04:51.432Z,61.40
2022-08-22T04:07:55.991Z,61.20
2022-08-22T04:10:42.465Z,61.43
2022-08-22T04:13:45.736Z,61.27
2022-08-22T04:16:58.666Z,61.32
2022-08-22T04:19:55.939Z,61.29
2022-08-22T04:23:16.083Z,61.26
2022-08-22T04:25:53.537Z,61.22
2022-08-22T04:28:30.283Z,61.46
2022-08-22T04:31:06.467Z,61.58
2022-08-22T04:33:57.535Z,61.31
2022-08-22T04:36:54.136Z,61.37
2022-08-22T04:39:32.926Z,61.40
2022-08-22T04:42:33.067Z,61.60
2022-08-22T04:45:17.962Z,61.29
2022-08-22T04:48:09.211Z,61.24
2022-08-22T04:51:10.734Z,61.46
2022-08-22T04:54:05.647Z,61.42
2022-08-22T04:56:56.852Z,61.55
2022-08-22T04:59:25.218Z,61.38
2022-08-22T05:01:59.904Z,61.46
2022-08-22T05:04:35.452Z,61.24
2022-08-22T05:07:14.656Z,61.28
2022-08-22T05:09:48.097Z,61.51
2022-08-22T05:12:34.141Z,61.35
2022-08-22T05:15:23.111Z,61.28
2022-08-22T05:17:54.210Z,61.67
2022-08-22T05:20:26.145Z,61.33
2022-08-22T05:23:00.982Z,61.37
2022-08-22T05:25:33.911Z,61.24
2022-08-22T05:28:17.707Z,61.36
2022-08-22T05:30:48.079Z,61.25
2022-08-22T05:33:29.862Z,61.42
2022-08-22T05:36:30.068Z,61.20
2022-08-22T05:39:03.357Z,61.36
2022-08-22T05:41:37.823Z,61.46
2022-08-22T05:44:16.357Z,61.38
2022-08-22T05:46:56.934Z,61.35
2022-08-22T05:49:42.950Z,61.33
2022-08-22T05:52:44.674Z,61.55
2022-08-22T05:55:48.492Z,61.55
2022-08-22T05:58:41.482Z,61.49
2022-08-22T06:01:38.613Z,61.44
2022-08-22T06:04:23.534Z,61.41
2022-08-22T06:07:13.124Z,61.36
2022-08-22T06:10:27.275Z,61.55
2022-08-22T06:13:12.131Z,61.72
2022-08-22T06:16:18.092Z,61.49
2022-08-22T06:18:46.168Z,61.52
2022-08-22T06:21:38.516Z,61.76
2022-08-22T06:24:13.827Z,61.55
2022-08-22T06:26:48.902Z,61.66
2022-08-22T06:30:01.812Z,61.54
2022-08-22T06:32:58.745Z,61.85
2022-08-22T06:36:04.732Z,61.90
2022-08-22T06:38:56.321Z,61.99
2022-08-22T06:41:30.027Z,61.77
2022-08-22T06:43:58.806Z,61.79
2022-08-22T06:46:29.919Z,61.71
2022-08-22T06:49:00.287Z,61.58
2022-08-22T06:51:29.523Z,61.58
2022-08-22T06:54:14.657Z,61.73
2022-08-22T06:56:45.715Z,61.66
2022-08-22T06:59:18.546Z,61.55
2022-08-22T07:02:02.773Z,61.86
2022-08-22T07:04:30.643Z,61.77
2022-08-22T07:07:01.183Z,61.97
2022-08-22T07:09:40.563Z,61.96
2022-08-22T07:12:19.497Z,61.62
2022-08-22T07:14:51.882Z,61.64
2022-08-22T07:17:27.685Z,61.67
2022-08-22T07:20:28.039Z,61.62
2022-08-22T07:23:03.807Z,61.87
2022-08-22T07:25:33.598Z,61.80
2022-08-22T07:28:21.626Z,61.95
2022-08-22T07:31:28.250Z,61.76
2022-08-22T07:34:41.466Z,61.72
2022-08-22T07:37:43.040Z,61.73
2022-08-22T07:40:55.593Z,61.63
2022-08-22T07:44:06.550Z,61.32
2022-08-22T07:46:46.103Z,60.59
2022-08-22T07:49:22.267Z,61.23
2022-08-22T07:52:00.572Z,61.09
2022-08-22T07:54:39.934Z,61.67
2022-08-22T07:57:28.511Z,61.70
2022-08-22T07:59:59.954Z,61.56
2022-08-22T08:02:28.207Z,61.86
2022-08-22T08:05:00.460Z,61.68
2022-08-22T08:07:30.316Z,61.81
2022-08-22T08:10:13.097Z,61.73
2022-08-22T08:13:02.347Z,61.51
2022-08-22T08:15:37.212Z,61.52
2022-08-22T08:18:19.455Z,61.52
2022-08-22T08:21:03.495Z,61.67
2022-08-22T08:23:40.682Z,61.69
2022-08-22T08:26:34.253Z,61.69
2022-08-22T08:29:03.637Z,61.82
2022-08-22T08:31:43.430Z,61.51
2022-08-22T08:34:26.899Z,61.53
2022-08-22T08:36:55.782Z,61.66
2022-08-22T08:39:36.572Z,61.54
2022-08-22T08:42:24.500Z,61.56
2022-08-22T08:45:35.443Z,61.46
2022-08-22T08:48:26.912Z,61.58
2022-08-22T08:51:39.796Z,61.45
2022-08-22T08:54:34.479Z,61.53
2022-08-22T08:57:54.504Z,61.57
2022-08-22T09:00:43.502Z,61.56
2022-08-22T09:03:31.413Z,61.56
2022-08-22T09:06:42.742Z,60.84
2022-08-22T09:09:54.945Z,61.23
2022-08-22T09:12:56.110Z,60.92
2022-08-22T09:15:58.541Z,61.25
2022-08-22T09:18:58.423Z,61.17
2022-08-22T09:21:49.297Z,59.89
2022-08-22T09:24:25.173Z,58.85
2022-08-22T09:27:08.677Z,58.35
2022-08-22T09:29:54.692Z,59.11
2022-08-22T09:32:45.196Z,58.25
2022-08-22T09:35:43.757Z,57.92
2022-08-22T09:38:48.263Z,58.07
2022-08-22T09:41:42.859Z,57.87
2022-08-22T09:44:33.684Z,57.87
2022-08-22T09:47:32.787Z,57.68
2022-08-22T09:50:17.095Z,57.55
2022-08-22T09:52:55.974Z,57.43
2022-08-22T09:56:15.338Z,57.14
2022-08-22T09:59:05.045Z,56.93
2022-08-22T10:01:50.688Z,57.25
2022-08-22T10:04:51.368Z,57.15
2022-08-22T10:07:52.686Z,57.13
2022-08-22T10:11:11.787Z,57.06
2022-08-22T10:14:10.183Z,57.54
2022-08-22T10:17:00.248Z,56.96
2022-08-22T10:19:47.550Z,57.11
2022-08-22T10:22:34.184Z,57.70
2022-08-22T10:25:25.006Z,56.93
2022-08-22T10:28:14.787Z,56.92
2022-08-22T10:30:54.973Z,57.28
2022-08-22T10:33:45.236Z,56.64
2022-08-22T10:36:21.607Z,56.41
2022-08-22T10:38:56.026Z,56.94
2022-08-22T10:42:19.315Z,56.62
2022-08-22T10:45:16.849Z,56.44
2022-08-22T10:48:08.988Z,56.49
2022-08-22T10:50:49.134Z,56.35
2022-08-22T10:53:34.728Z,56.39
2022-08-22T10:56:16.141Z,56.90
2022-08-22T10:58:56.280Z,56.35
2022-08-22T11:01:37.119Z,56.23
2022-08-22T11:04:27.984Z,56.06
2022-08-22T11:07:28.929Z,55.90
2022-08-22T11:10:05.086Z,55.92
2022-08-22T11:12:41.754Z,55.79
2022-08-22T11:15:53.268Z,55.88
2022-08-22T11:19:03.172Z,56.13
2022-08-22T11:22:19.349Z,55.88
2022-08-22T11:25:38.864Z,55.51
2022-08-22T11:28:39.019Z,55.73
2022-08-22T11:31:19.749Z,55.71
2022-08-22T11:34:40.303Z,55.64
2022-08-22T11:37:42.701Z,55.55
2022-08-22T11:40:31.871Z,55.60
2022-08-22T11:43:37.087Z,55.39
2022-08-22T11:46:30.342Z,55.36
2022-08-22T11:49:25.743Z,55.26
2022-08-22T11:52:12.157Z,55.21
2022-08-22T11:55:12.389Z,55.04
2022-08-22T11:57:50.912Z,54.97
2022-08-22T12:00:26.390Z,55.11
2022-08-22T12:03:23.733Z,55.07
2022-08-22T12:06:24.067Z,55.07
2022-08-22T12:09:13.209Z,54.94
2022-08-22T12:12:17.041Z,54.86
2022-08-22T12:15:14.381Z,54.90
2022-08-22T12:18:03.230Z,54.78
2022-08-22T12:20:45.443Z,54.91
2022-08-22T12:23:49.540Z,54.95
2022-08-22T12:27:06.651Z,54.96
2022-08-22T12:30:14.598Z,54.77
2022-08-22T12:33:32.023Z,54.72
2022-08-22T12:36:50.013Z,54.62
2022-08-22T12:39:41.906Z,54.75
2022-08-22T12:42:46.174Z,54.28
2022-08-22T12:45:51.745Z,55.28
2022-08-22T12:48:24.529Z,54.92
2022-08-22T12:51:27.404Z,54.51
2022-08-22T12:54:36.223Z,54.42
2022-08-22T12:57:33.852Z,54.37
2022-08-22T13:00:45.203Z,55.86
2022-08-22T13:03:53.545Z,56.04
2022-08-22T13:06:48.596Z,55.72
2022-08-22T13:09:35.693Z,55.22
2022-08-22T13:12:27.728Z,55.33
2022-08-22T13:15:37.265Z,55.23
2022-08-22T13:18:29.817Z,55.26
2022-08-22T13:21:01.870Z,57.08
2022-08-22T13:23:47.159Z,55.51
2022-08-22T13:26:33.817Z,55.35
2022-08-22T13:29:39.383Z,55.82
2022-08-22T13:32:03.634Z,56.08
2022-08-22T13:34:48.358Z,56.33
2022-08-22T13:37:31.003Z,56.83
2022-08-22T13:40:10.865Z,56.19
2022-08-22T13:42:47.784Z,56.32
2022-08-22T13:45:28.690Z,57.27
2022-08-22T13:48:12.895Z,59.04
2022-08-22T13:51:14.887Z,59.26
2022-08-22T13:54:00.549Z,58.02
2022-08-22T13:56:47.593Z,56.95
2022-08-22T13:59:57.768Z,56.47
2022-08-22T14:02:36.382Z,55.73
2022-08-22T14:05:23.887Z,55.54
2022-08-22T14:07:59.281Z,55.16
2022-08-22T14:10:32.919Z,55.44
2022-08-22T14:13:00.564Z,56.21
2022-08-22T14:15:44.698Z,57.71
2022-08-22T14:18:36.580Z,56.76
2022-08-22T14:21:41.358Z,56.15
2022-08-22T14:24:25.647Z,57.10
2022-08-22T14:27:00.008Z,58.58
2022-08-22T14:29:56.995Z,44.53
2022-08-22T14:33:07.031Z,41.40
2022-08-22T14:35:42.367Z,41.47
2022-08-22T14:38:27.196Z,41.01
2022-08-22T14:41:05.153Z,41.05
2022-08-22T14:43:32.314Z,40.75
2022-08-22T14:46:14.301Z,41.49
2022-08-22T14:48:56.378Z,41.13
2022-08-22T14:51:26.581Z,41.07
2022-08-22T14:54:08.167Z,40.58
2022-08-22T14:56:42.640Z,41.85
2022-08-22T14:59:31.082Z,42.14
2022-08-22T15:02:07.567Z,41.42
2022-08-22T15:04:44.073Z,40.20
2022-08-22T15:07:33.061Z,40.93
2022-08-22T15:10:11.928Z,40.83
2022-08-22T15:12:58.697Z,40.38
2022-08-22T15:15:52.941Z,39.72
2022-08-22T15:18:30.414Z,40.26
2022-08-22T15:21:27.910Z,39.42
2022-08-22T15:24:02.623Z,39.39
2022-08-22T15:26:36.307Z,40.21
2022-08-22T15:29:17.994Z,39.89
2022-08-22T15:31:52.692Z,38.69
2022-08-22T15:34:36.065Z,38.84
2022-08-22T15:37:18.416Z,39.04
2022-08-22T15:40:08.583Z,38.94
2022-08-22T15:42:48.970Z,39.41
2022-08-22T15:45:33.979Z,38.79
2022-08-22T15:48:10.013Z,39.03
2022-08-22T15:50:58.222Z,38.35
2022-08-22T15:53:33.615Z,38.53
2022-08-22T15:56:08.232Z,38.94
2022-08-22T15:58:40.370Z,38.79
2022-08-22T16:01:24.209Z,38.93
2022-08-22T16:04:04.954Z,39.19
2022-08-22T16:06:56.581Z,39.31
2022-08-22T16:09:42.687Z,38.84
2022-08-22T16:12:46.336Z,38.70
2022-08-22T16:15:47.140Z,38.56
2022-08-22T16:18:39.494Z,39.62
2022-08-22T16:21:21.369Z,39.02
2022-08-22T16:23:51.256Z,39.41
2022-08-22T16:26:30.307Z,38.66
2022-08-22T16:29:03.304Z,38.60
2022-08-22T16:31:37.900Z,39.35
2022-08-22T16:34:17.215Z,39.51
2022-08-22T16:37:08.637Z,39.09
2022-08-22T16:39:46.884Z,39.48
2022-08-22T16:42:23.031Z,39.54
2022-08-22T16:45:05.142Z,39.51
2022-08-22T16:47:41.784Z,39.79
2022-08-22T16:50:18.454Z,39.17
2022-08-22T16:53:13.847Z,39.20
2022-08-22T16:56:03.867Z,39.79
2022-08-22T16:59:33.228Z,39.74
2022-08-22T17:02:54.185Z,40.01
2022-08-22T17:06:00.313Z,40.59
2022-08-22T17:08:33.266Z,40.28
2022-08-22T17:11:27.256Z,40.43
2022-08-22T17:14:09.638Z,40.56
2022-08-22T17:17:22.912Z,40.08
2022-08-22T17:20:10.504Z,39.91
2022-08-22T17:23:18.739Z,41.22
2022-08-22T17:26:00.315Z,41.13
2022-08-22T17:29:13.022Z,41.86
2022-08-22T17:31:50.013Z,41.96
2022-08-22T17:34:50.480Z,42.71
2022-08-22T17:37:40.605Z,43.09
2022-08-22T17:40:23.549Z,43.94
2022-08-22T17:43:03.517Z,44.17
2022-08-22T17:45:48.280Z,44.19
2022-08-22T17:48:24.896Z,44.31
2022-08-22T17:51:02.974Z,44.20
2022-08-22T17:53:46.491Z,44.13
2022-08-22T17:56:26.268Z,44.28
2022-08-22T17:59:19.090Z,44.51
2022-08-22T18:02:09.623Z,44.93
2022-08-22T18:05:16.311Z,45.45
2022-08-22T18:08:09.584Z,45.56
2022-08-22T18:10:48.284Z,45.35
2022-08-22T18:13:34.100Z,46.10
2022-08-22T18:16:11.749Z,45.44
2022-08-22T18:18:45.784Z,46.01
2022-08-22T18:21:33.262Z,46.01
2022-08-22T18:24:31.282Z,46.40
2022-08-22T18:27:30.009Z,45.72
2022-08-22T18:30:11.032Z,46.40
2022-08-22T18:33:06.009Z,46.55
2022-08-22T18:35:42.314Z,46.92
2022-08-22T18:39:21.632Z,46.92
2022-08-22T18:41:51.705Z,47.61
2022-08-22T18:44:28.991Z,47.81
2022-08-22T18:47:14.267Z,48.15
2022-08-22T18:49:46.465Z,48.32
2022-08-22T18:52:26.035Z,48.62
2022-08-22T18:55:20.031Z,48.95
2022-08-22T18:58:28.700Z,49.10
2022-08-22T19:01:40.682Z,48.89
2022-08-22T19:04:33.049Z,49.08
2022-08-22T19:07:21.706Z,49.52
2022-08-22T19:10:19.082Z,50.39
2022-08-22T19:13:13.032Z,50.07
2022-08-22T19:16:06.825Z,50.74
2022-08-22T19:19:01.596Z,51.01
2022-08-22T19:21:52.162Z,51.46
2022-08-22T19:24:28.673Z,52.13
2022-08-22T19:27:10.665Z,52.22
2022-08-22T19:29:37.547Z,52.00
2022-08-22T19:32:12.804Z,52.31
2022-08-22T19:34:46.873Z,52.52
2022-08-22T19:37:31.921Z,52.73
2022-08-22T19:40:12.057Z,53.23
2022-08-22T19:42:44.178Z,53.12
2022-08-22T19:45:30.687Z,53.32
2022-08-22T19:48:14.107Z,53.69
2022-08-22T19:50:42.998Z,53.81
2022-08-22T19:53:45.991Z,53.81
2022-08-22T19:56:31.032Z,54.17
2022-08-22T19:59:14.295Z,54.52
2022-08-22T20:02:06.191Z,54.33
2022-08-22T20:04:49.651Z,54.19
2022-08-22T20:07:31.347Z,54.51
2022-08-22T20:10:23.687Z,53.92
2022-08-22T20:13:29.765Z,54.51
2022-08-22T20:16:10.494Z,55.49
2022-08-22T20:19:05.205Z,54.95
2022-08-22T20:21:55.147Z,54.74
2022-08-22T20:24:43.000Z,55.09
2022-08-22T20:27:27.529Z,55.59
2022-08-22T20:30:30.844Z,55.37
2022-08-22T20:33:08.594Z,55.83
2022-08-22T20:36:01.415Z,56.08
2022-08-22T20:39:10.941Z,55.92
2022-08-22T20:41:48.985Z,56.17
2022-08-22T20:44:31.645Z,56.41
2022-08-22T20:47:12.496Z,56.18
2022-08-22T20:49:48.861Z,56.52
2022-08-22T20:52:37.158Z,56.07
2022-08-22T20:55:31.222Z,56.71
2022-08-22T20:58:20.808Z,57.01
2022-08-22T21:00:54.205Z,56.81
2022-08-22T21:03:39.821Z,56.80
2022-08-22T21:06:36.063Z,57.31
2022-08-22T21:09:42.095Z,57.09
2022-08-22T21:12:13.924Z,57.18
2022-08-22T21:14:46.754Z,57.37
2022-08-22T21:17:35.555Z,56.98
2022-08-22T21:20:24.463Z,57.53
2022-08-22T21:22:56.985Z,57.55
2022-08-22T21:25:24.071Z,57.78
2022-08-22T21:27:53.405Z,58.22
2022-08-22T21:30:29.138Z,57.93
2022-08-22T21:32:57.633Z,57.40
2022-08-22T21:35:32.533Z,57.15
2022-08-22T21:38:02.122Z,56.93
2022-08-22T21:40:37.974Z,57.91
2022-08-22T21:43:13.766Z,58.33
2022-08-22T21:45:46.902Z,58.33
2022-08-22T21:48:38.314Z,59.11
2022-08-22T21:51:38.869Z,59.15
2022-08-22T21:54:25.217Z,59.04
2022-08-22T21:57:15.900Z,59.32
2022-08-22T21:59:51.650Z,59.28
2022-08-22T22:02:40.271Z,59.12
2022-08-22T22:05:17.987Z,59.19
2022-08-22T22:07:48.522Z,59.08
2022-08-22T22:10:20.080Z,59.68
2022-08-22T22:12:51.268Z,59.73
2022-08-22T22:15:28.840Z,60.04
2022-08-22T22:17:56.330Z,60.13
2022-08-22T22:20:28.131Z,60.20
2022-08-22T22:22:55.913Z,60.49
2022-08-22T22:25:41.034Z,60.39
2022-08-22T22:28:34.814Z,60.60
2022-08-22T22:31:03.534Z,60.63
2022-08-22T22:33:35.572Z,60.93
2022-08-22T22:36:22.619Z,60.96
2022-08-22T22:38:51.687Z,61.28
2022-08-22T22:41:20.439Z,61.23
2022-08-22T22:43:47.486Z,61.67
2022-08-22T22:46:14.528Z,61.72
2022-08-22T22:48:41.588Z,61.72
2022-08-22T22:51:10.882Z,62.00
2022-08-22T22:53:43.168Z,62.01
2022-08-22T22:56:15.872Z,62.28
2022-08-22T22:58:44.082Z,62.29
2022-08-22T23:01:25.228Z,62.21
2022-08-22T23:04:05.647Z,61.94
2022-08-22T23:06:34.452Z,61.90
2022-08-22T23:09:01.585Z,61.99
2022-08-22T23:11:30.446Z,61.85
2022-08-22T23:13:58.112Z,61.79
2022-08-22T23:16:28.645Z,61.83
2022-08-22T23:18:56.533Z,61.86
2022-08-22T23:21:29.968Z,61.79
2022-08-22T23:23:59.360Z,61.63
2022-08-22T23:26:31.255Z,61.41
2022-08-22T23:28:59.200Z,61.19
2022-08-22T23:31:36.154Z,61.64
2022-08-22T23:34:11.471Z,62.03
2022-08-22T23:36:45.772Z,61.85
2022-08-22T23:39:15.325Z,62.24
2022-08-22T23:41:43.967Z,62.67
2022-08-22T23:44:15.597Z,62.62
2022-08-22T23:46:43.485Z,62.95
2022-08-22T23:49:10.856Z,63.23
2022-08-22T23:51:38.412Z,63.27
2022-08-22T23:54:08.699Z,63.59
2022-08-22T23:56:41.772Z,63.70
2022-08-22T23:59:17.531Z,63.74
